createdAt,value
2018-12-25T00:02:20.886Z,3.90
2018-12-25T00:04:49.558Z,3.53
2018-12-25T00:07:18.237Z,3.53
2018-12-25T00:09:46.911Z,6.07
2018-12-25T00:12:15.613Z,4.07
2018-12-25T00:14:44.288Z,3.63
2018-12-25T00:17:13.008Z,3.90
2018-12-25T00:19:41.907Z,4.20
2018-12-25T00:22:10.596Z,3.80
2018-12-25T00:24:39.288Z,4.53
2018-12-25T00:27:08.002Z,4.00
2018-12-25T00:29:36.667Z,3.80
2018-12-25T00:32:05.335Z,4.07
2018-12-25T00:34:34.095Z,4.00
2018-12-25T00:37:02.758Z,3.70
2018-12-25T00:39:31.645Z,3.43
2018-12-25T00:42:00.302Z,3.10
2018-12-25T00:44:28.993Z,3.73
2018-12-25T00:46:57.694Z,3.53
2018-12-25T00:49:26.346Z,3.10
2018-12-25T00:51:55.046Z,3.70
2018-12-25T00:54:23.883Z,3.30
2018-12-25T00:56:52.544Z,3.67
2018-12-25T00:59:21.231Z,3.37
2018-12-25T01:01:49.919Z,3.40
2018-12-25T01:04:18.633Z,2.73
2018-12-25T01:06:47.295Z,3.40
2018-12-25T01:09:15.967Z,3.40
2018-12-25T01:11:44.696Z,4.10
2018-12-25T01:14:13.424Z,3.10
2018-12-25T01:16:42.188Z,3.20
2018-12-25T01:19:10.882Z,3.80
2018-12-25T01:21:39.568Z,3.13
2018-12-25T01:24:08.231Z,3.40
2018-12-25T01:26:36.929Z,3.73
2018-12-25T01:29:05.635Z,3.67
2018-12-25T01:31:34.326Z,3.77
2018-12-25T01:34:02.997Z,2.80
2018-12-25T01:36:31.801Z,3.60
2018-12-25T01:39:00.594Z,3.50
2018-12-25T01:41:29.315Z,3.50
2018-12-25T01:43:58.009Z,4.23
2018-12-25T01:46:26.717Z,3.90
2018-12-25T01:48:55.398Z,4.03
2018-12-25T01:51:24.062Z,4.60
2018-12-25T01:53:52.752Z,3.63
2018-12-25T01:56:21.428Z,3.40
2018-12-25T01:58:50.207Z,4.43
2018-12-25T02:01:18.897Z,3.60
2018-12-25T02:03:47.592Z,4.70
2018-12-25T02:06:16.262Z,4.70
2018-12-25T02:08:44.971Z,4.70
2018-12-25T02:11:13.773Z,4.40
2018-12-25T02:13:42.458Z,4.43
2018-12-25T02:16:11.328Z,3.93
2018-12-25T02:18:40.022Z,4.57
2018-12-25T02:21:08.734Z,4.43
2018-12-25T02:23:37.542Z,4.90
2018-12-25T02:26:06.209Z,4.57
2018-12-25T02:28:34.950Z,4.27
2018-12-25T02:31:03.619Z,4.03
2018-12-25T02:33:32.384Z,4.10
2018-12-25T02:36:01.067Z,4.40
2018-12-25T02:38:29.771Z,4.20
2018-12-25T02:40:58.426Z,4.23
2018-12-25T02:43:27.151Z,3.70
2018-12-25T02:45:55.816Z,4.20
2018-12-25T02:48:24.522Z,4.87
2018-12-25T02:50:53.386Z,4.50
2018-12-25T02:53:22.150Z,4.00
2018-12-25T02:55:50.893Z,5.17
2018-12-25T02:58:19.567Z,3.93
2018-12-25T03:00:48.243Z,4.50
2018-12-25T03:03:16.898Z,4.33
2018-12-25T03:05:45.596Z,4.20
2018-12-25T03:08:14.278Z,4.23
2018-12-25T03:10:42.961Z,4.67
2018-12-25T03:13:11.631Z,3.53
2018-12-25T03:15:40.315Z,4.40
2018-12-25T03:18:09.018Z,4.40
2018-12-25T03:20:37.708Z,4.43
2018-12-25T03:23:06.400Z,4.00
2018-12-25T03:25:35.088Z,4.10
2018-12-25T03:28:03.787Z,4.20
2018-12-25T03:30:32.443Z,3.87
2018-12-25T03:33:01.154Z,4.30
2018-12-25T03:35:29.821Z,4.97
2018-12-25T03:37:58.548Z,4.30
2018-12-25T03:40:27.230Z,6.10
2018-12-25T03:42:55.883Z,4.73
2018-12-25T03:45:24.681Z,3.90
2018-12-25T03:47:53.447Z,4.73
2018-12-25T03:50:22.103Z,3.90
2018-12-25T03:52:50.806Z,4.10
2018-12-25T03:55:19.464Z,4.17
2018-12-25T03:57:48.135Z,4.73
2018-12-25T04:00:16.827Z,4.53
2018-12-25T04:02:45.483Z,3.53
2018-12-25T04:05:14.281Z,5.10
2018-12-25T04:07:42.940Z,4.37
2018-12-25T04:10:11.619Z,3.97
2018-12-25T04:12:40.306Z,4.47
2018-12-25T04:15:09.011Z,4.60
2018-12-25T04:17:37.671Z,4.10
2018-12-25T04:20:08.663Z,4.13
2018-12-25T04:22:37.504Z,5.27
2018-12-25T04:25:06.179Z,3.93
2018-12-25T04:27:34.896Z,4.80
2018-12-25T04:30:04.132Z,4.27
2018-12-25T04:32:32.866Z,4.70
2018-12-25T04:35:01.580Z,4.83
2018-12-25T04:37:30.308Z,5.70
2018-12-25T04:39:58.984Z,4.90
2018-12-25T04:42:27.740Z,5.33
2018-12-25T04:44:56.439Z,4.70
2018-12-25T04:47:25.317Z,4.83
2018-12-25T04:49:53.985Z,4.67
2018-12-25T04:52:22.691Z,4.63
2018-12-25T04:54:51.356Z,4.57
2018-12-25T04:57:20.164Z,4.60
2018-12-25T04:59:48.832Z,5.27
2018-12-25T05:02:17.538Z,5.27
2018-12-25T05:04:46.227Z,5.33
2018-12-25T05:07:14.935Z,4.50
2018-12-25T05:09:43.638Z,5.50
2018-12-25T05:12:12.295Z,5.90
2018-12-25T05:14:40.987Z,5.10
2018-12-25T05:17:09.689Z,5.40
2018-12-25T05:19:38.346Z,5.10
2018-12-25T05:22:07.023Z,5.43
2018-12-25T05:24:35.713Z,5.63
2018-12-25T05:27:04.381Z,6.17
2018-12-25T05:29:33.086Z,6.07
2018-12-25T05:32:01.748Z,5.17
2018-12-25T05:34:30.452Z,5.10
2018-12-25T05:36:59.092Z,4.87
2018-12-25T05:39:27.930Z,5.03
2018-12-25T05:41:56.602Z,5.60
2018-12-25T05:44:25.266Z,5.60
2018-12-25T05:46:53.950Z,5.00
2018-12-25T05:49:22.624Z,5.57
2018-12-25T05:51:51.347Z,5.00
2018-12-25T05:54:20.092Z,5.43
2018-12-25T05:56:48.772Z,5.47
2018-12-25T05:59:17.434Z,6.00
2018-12-25T06:01:46.125Z,5.23
2018-12-25T06:04:14.823Z,5.57
2018-12-25T06:06:43.495Z,5.20
2018-12-25T06:09:12.163Z,5.03
2018-12-25T06:11:40.879Z,5.20
2018-12-25T06:14:09.560Z,5.20
2018-12-25T06:16:38.260Z,5.30
2018-12-25T06:19:06.919Z,5.37
2018-12-25T06:21:35.775Z,5.03
2018-12-25T06:24:04.462Z,5.10
2018-12-25T06:26:33.125Z,5.50
2018-12-25T06:29:01.817Z,5.50
2018-12-25T06:31:30.482Z,5.40
2018-12-25T06:33:59.167Z,5.30
2018-12-25T06:36:27.829Z,6.07
2018-12-25T06:38:56.526Z,6.40
2018-12-25T06:41:25.209Z,5.70
2018-12-25T06:43:57.217Z,5.30
2018-12-25T06:46:25.929Z,5.90
2018-12-25T06:48:54.594Z,5.53
2018-12-25T06:51:23.296Z,5.60
2018-12-25T06:53:51.988Z,5.90
2018-12-25T06:56:20.691Z,6.00
2018-12-25T06:58:49.350Z,5.70
2018-12-25T07:01:18.052Z,5.50
2018-12-25T07:03:46.744Z,6.30
2018-12-25T07:06:15.418Z,5.27
2018-12-25T07:08:44.113Z,5.50
2018-12-25T07:11:12.778Z,6.17
2018-12-25T07:13:41.480Z,5.40
2018-12-25T07:16:10.259Z,6.00
2018-12-25T07:18:38.935Z,7.17
2018-12-25T07:21:12.182Z,5.57
2018-12-25T07:23:38.042Z,6.53
2018-12-25T07:26:06.732Z,6.30
2018-12-25T07:28:35.407Z,5.97
2018-12-25T07:31:04.111Z,5.87
2018-12-25T07:33:32.778Z,6.87
2018-12-25T07:36:01.593Z,6.43
2018-12-25T07:38:30.283Z,6.40
2018-12-25T07:40:58.972Z,6.00
2018-12-25T07:43:27.663Z,6.30
2018-12-25T07:45:56.363Z,6.97
2018-12-25T07:48:25.147Z,7.23
2018-12-25T07:50:54.024Z,7.13
2018-12-25T07:53:22.726Z,7.20
2018-12-25T07:55:51.383Z,6.80
2018-12-25T07:58:20.164Z,6.70
2018-12-25T08:00:48.863Z,5.83
2018-12-25T08:03:17.515Z,6.17
2018-12-25T08:05:46.186Z,7.03
2018-12-25T08:08:14.895Z,6.30
2018-12-25T08:10:43.578Z,6.53
2018-12-25T08:13:12.236Z,7.10
2018-12-25T08:15:40.943Z,7.00
2018-12-25T08:18:09.613Z,7.43
2018-12-25T08:20:38.279Z,7.60
2018-12-25T08:23:06.991Z,7.33
2018-12-25T08:25:35.792Z,7.77
2018-12-25T08:28:04.474Z,7.37
2018-12-25T08:30:33.185Z,8.10
2018-12-25T08:33:01.834Z,8.10
2018-12-25T08:35:30.550Z,7.60
2018-12-25T08:37:59.218Z,8.60
2018-12-25T08:40:27.892Z,8.87
2018-12-25T08:42:56.597Z,8.17
2018-12-25T08:45:25.291Z,8.47
2018-12-25T08:47:54.007Z,8.30
2018-12-25T08:50:22.681Z,7.30
2018-12-25T08:52:51.392Z,7.47
2018-12-25T08:55:20.042Z,7.93
2018-12-25T08:57:48.752Z,8.70
2018-12-25T09:00:17.472Z,7.57
2018-12-25T09:02:46.175Z,8.03
2018-12-25T09:05:14.856Z,8.37
2018-12-25T09:07:43.540Z,8.20
2018-12-25T09:10:12.204Z,8.57
2018-12-25T09:12:40.910Z,7.50
2018-12-25T09:15:09.560Z,8.27
2018-12-25T09:17:38.258Z,7.77
2018-12-25T09:20:06.925Z,7.70
2018-12-25T09:22:35.636Z,8.03
2018-12-25T09:25:04.496Z,7.63
2018-12-25T09:27:33.195Z,8.40
2018-12-25T09:30:01.844Z,9.73
2018-12-25T09:32:30.546Z,8.30
2018-12-25T09:34:59.443Z,8.60
2018-12-25T09:37:28.138Z,8.73
2018-12-25T09:39:56.842Z,8.70
2018-12-25T09:42:25.548Z,9.20
2018-12-25T09:44:54.250Z,8.77
2018-12-25T09:47:22.906Z,8.80
2018-12-25T09:49:51.751Z,9.43
2018-12-25T09:52:20.443Z,7.80
2018-12-25T09:54:49.232Z,8.90
2018-12-25T09:57:17.978Z,7.47
2018-12-25T09:59:46.660Z,9.07
2018-12-25T10:02:15.375Z,10.10
2018-12-25T10:04:44.215Z,9.10
2018-12-25T10:07:12.925Z,9.07
2018-12-25T10:09:41.581Z,8.80
2018-12-25T10:12:10.274Z,9.03
2018-12-25T10:14:38.964Z,9.20
2018-12-25T10:17:07.653Z,9.60
2018-12-25T10:19:36.329Z,9.17
2018-12-25T10:22:05.319Z,8.47
2018-12-25T10:24:34.147Z,9.17
2018-12-25T10:27:02.853Z,9.57
2018-12-25T10:29:31.536Z,8.70
2018-12-25T10:32:00.255Z,9.40
2018-12-25T10:34:28.926Z,8.50
2018-12-25T10:36:57.639Z,8.67
2018-12-25T10:39:26.315Z,9.70
2018-12-25T10:41:54.996Z,8.60
2018-12-25T10:44:23.684Z,8.23
2018-12-25T10:46:52.390Z,10.53
2018-12-25T10:49:21.071Z,10.20
2018-12-25T10:51:49.767Z,8.50
2018-12-25T10:54:18.461Z,9.67
2018-12-25T10:56:47.190Z,8.83
2018-12-25T10:59:15.877Z,9.20
2018-12-25T11:01:44.558Z,9.20
2018-12-25T11:04:13.232Z,9.23
2018-12-25T11:06:41.931Z,9.67
2018-12-25T11:09:10.604Z,8.73
2018-12-25T11:11:39.271Z,9.77
2018-12-25T11:14:07.975Z,10.40
2018-12-25T11:16:36.816Z,9.73
2018-12-25T11:19:05.659Z,9.40
2018-12-25T11:21:34.333Z,9.97
2018-12-25T11:24:03.726Z,9.37
2018-12-25T11:26:32.447Z,8.97
2018-12-25T11:29:01.109Z,9.90
2018-12-25T11:31:29.873Z,10.00
2018-12-25T11:33:58.543Z,10.60
2018-12-25T11:36:27.210Z,8.63
2018-12-25T11:38:55.924Z,9.73
2018-12-25T11:41:24.632Z,9.40
2018-12-25T11:43:53.392Z,9.50
2018-12-25T11:46:22.096Z,9.30
2018-12-25T11:48:50.768Z,9.37
2018-12-25T11:51:19.439Z,8.53
2018-12-25T11:53:48.141Z,8.33
2018-12-25T11:56:16.808Z,9.10
2018-12-25T11:58:45.555Z,11.20
2018-12-25T12:01:14.238Z,8.67
2018-12-25T12:03:42.953Z,8.20
2018-12-25T12:06:11.670Z,7.90
2018-12-25T12:08:40.411Z,8.17
2018-12-25T12:11:09.137Z,8.00
2018-12-25T12:13:37.854Z,8.47
2018-12-25T12:16:06.559Z,8.47
2018-12-25T12:18:35.327Z,8.20
2018-12-25T12:21:04.010Z,8.63
2018-12-25T12:23:32.712Z,8.90
2018-12-25T12:26:01.396Z,7.80
2018-12-25T12:28:30.144Z,7.80
2018-12-25T12:30:58.930Z,8.27
2018-12-25T12:33:27.619Z,8.10
2018-12-25T12:35:56.300Z,7.50
2018-12-25T12:38:25.020Z,10.10
2018-12-25T12:40:53.800Z,8.47
2018-12-25T12:43:22.538Z,7.70
2018-12-25T12:45:51.438Z,9.40
2018-12-25T12:48:20.155Z,8.83
2018-12-25T12:50:48.828Z,8.20
2018-12-25T12:53:17.574Z,7.93
2018-12-25T12:55:46.273Z,11.97
2018-12-25T12:58:14.949Z,8.27
2018-12-25T13:00:43.651Z,7.80
2018-12-25T13:03:12.315Z,7.47
2018-12-25T13:05:41.051Z,6.73
2018-12-25T13:08:09.787Z,6.70
2018-12-25T13:10:38.531Z,8.07
2018-12-25T13:13:07.251Z,8.63
2018-12-25T13:15:35.960Z,7.10
2018-12-25T13:18:04.633Z,7.47
2018-12-25T13:20:33.323Z,8.80
2018-12-25T13:23:02.012Z,7.17
2018-12-25T13:25:30.730Z,7.70
2018-12-25T13:27:59.395Z,7.63
2018-12-25T13:30:28.087Z,7.37
2018-12-25T13:32:56.878Z,8.87
2018-12-25T13:35:25.646Z,7.33
2018-12-25T13:37:54.365Z,8.23
2018-12-25T13:40:23.026Z,8.57
2018-12-25T13:42:51.740Z,8.57
2018-12-25T13:45:20.431Z,9.60
2018-12-25T13:47:49.092Z,8.47
2018-12-25T13:50:17.991Z,8.17
2018-12-25T13:52:46.657Z,9.30
2018-12-25T13:55:15.370Z,8.97
2018-12-25T13:57:45.004Z,8.10
2018-12-25T14:00:13.683Z,9.47
2018-12-25T14:02:42.408Z,8.00
2018-12-25T14:05:11.067Z,7.47
2018-12-25T14:07:41.218Z,9.83
2018-12-25T14:10:09.908Z,8.73
2018-12-25T14:12:38.571Z,8.30
2018-12-25T14:15:07.271Z,9.10
2018-12-25T14:17:35.963Z,8.47
2018-12-25T14:20:05.688Z,8.67
2018-12-25T14:22:34.392Z,7.50
2018-12-25T14:25:03.064Z,8.10
2018-12-25T14:27:31.745Z,8.30
2018-12-25T14:30:00.563Z,8.13
2018-12-25T14:32:29.281Z,8.77
2018-12-25T14:34:57.959Z,9.17
2018-12-25T14:37:26.738Z,8.30
2018-12-25T14:39:55.543Z,9.57
2018-12-25T14:42:24.262Z,9.13
2018-12-25T14:44:52.979Z,8.57
2018-12-25T14:47:21.677Z,9.70
2018-12-25T14:49:50.366Z,9.10
2018-12-25T14:52:19.084Z,8.77
2018-12-25T14:54:47.773Z,9.57
2018-12-25T14:57:16.585Z,9.50
2018-12-25T14:59:45.378Z,8.60
2018-12-25T15:02:14.091Z,8.63
2018-12-25T15:04:42.788Z,8.40
2018-12-25T15:07:11.497Z,9.03
2018-12-25T15:09:40.274Z,8.93
2018-12-25T15:12:09.000Z,9.87
2018-12-25T15:14:37.871Z,8.80
2018-12-25T15:17:06.553Z,9.00
2018-12-25T15:19:35.243Z,9.27
2018-12-25T15:22:03.917Z,9.43
2018-12-25T15:24:32.582Z,8.73
2018-12-25T15:27:01.283Z,9.30
2018-12-25T15:29:29.963Z,8.60
2018-12-25T15:31:58.645Z,8.07
2018-12-25T15:34:27.362Z,8.53
2018-12-25T15:36:56.096Z,9.70
2018-12-25T15:39:24.764Z,9.30
2018-12-25T15:41:53.479Z,9.70
2018-12-25T15:44:22.169Z,9.40
2018-12-25T15:46:50.874Z,10.23
2018-12-25T15:49:19.550Z,9.80
2018-12-25T15:51:48.585Z,9.60
2018-12-25T15:54:17.279Z,9.20
2018-12-25T15:56:45.957Z,9.50
2018-12-25T15:59:14.636Z,10.27
2018-12-25T16:01:43.342Z,8.53
2018-12-25T16:04:12.024Z,10.10
2018-12-25T16:06:40.686Z,9.77
2018-12-25T16:09:09.387Z,10.90
2018-12-25T16:11:38.110Z,9.83
2018-12-25T16:14:06.861Z,9.80
2018-12-25T16:16:35.532Z,10.03
2018-12-25T16:19:04.250Z,10.90
2018-12-25T16:21:32.980Z,10.47
2018-12-25T16:24:01.650Z,10.90
2018-12-25T16:26:30.367Z,10.20
2018-12-25T16:28:59.034Z,9.60
2018-12-25T16:31:27.707Z,9.23
2018-12-25T16:33:56.423Z,10.40
2018-12-25T16:36:25.137Z,10.07
2018-12-25T16:38:55.249Z,10.73
2018-12-25T16:41:24.207Z,11.47
2018-12-25T16:43:52.891Z,11.60
2018-12-25T16:46:21.612Z,11.00
2018-12-25T16:48:50.310Z,10.57
2018-12-25T16:51:19.041Z,11.73
2018-12-25T16:53:53.567Z,11.30
2018-12-25T16:56:18.172Z,10.80
2018-12-25T16:58:46.852Z,10.67
2018-12-25T17:01:15.562Z,10.97
2018-12-25T17:03:44.278Z,9.40
2018-12-25T17:06:12.929Z,11.87
2018-12-25T17:08:41.654Z,10.37
2018-12-25T17:11:10.370Z,10.70
2018-12-25T17:13:39.062Z,10.43
2018-12-25T17:16:07.778Z,10.60
2018-12-25T17:18:36.487Z,11.53
2018-12-25T17:21:05.168Z,12.63
2018-12-25T17:23:33.892Z,10.60
2018-12-25T17:26:04.618Z,11.10
2018-12-25T17:28:33.300Z,11.20
2018-12-25T17:31:02.011Z,10.60
2018-12-25T17:33:30.676Z,11.23
2018-12-25T17:35:59.383Z,11.70
2018-12-25T17:38:28.067Z,10.90
2018-12-25T17:40:56.748Z,10.70
2018-12-25T17:43:25.439Z,11.03
2018-12-25T17:45:54.156Z,10.43
2018-12-25T17:48:22.923Z,11.80
2018-12-25T17:50:51.671Z,10.83
2018-12-25T17:53:20.605Z,10.93
2018-12-25T17:55:49.276Z,11.13
2018-12-25T17:58:17.970Z,11.00
2018-12-25T18:00:46.661Z,11.87
2018-12-25T18:03:15.351Z,11.80
2018-12-25T18:05:44.045Z,11.53
2018-12-25T18:08:12.764Z,11.87
2018-12-25T18:10:41.431Z,11.80
2018-12-25T18:13:10.218Z,11.67
2018-12-25T18:15:38.940Z,14.03
2018-12-25T18:18:07.668Z,12.70
2018-12-25T18:20:36.416Z,11.07
2018-12-25T18:23:05.112Z,10.50
2018-12-25T18:25:33.794Z,12.50
2018-12-25T18:28:02.452Z,11.87
2018-12-25T18:30:31.351Z,11.10
2018-12-25T18:33:00.032Z,10.70
2018-12-25T18:35:28.719Z,11.50
2018-12-25T18:37:57.644Z,12.70
2018-12-25T18:40:26.318Z,10.23
2018-12-25T18:42:55.084Z,10.53
2018-12-25T18:45:24.127Z,11.80
2018-12-25T18:47:52.797Z,11.13
2018-12-25T18:50:21.475Z,11.00
2018-12-25T18:52:50.299Z,11.10
2018-12-25T18:55:18.989Z,11.83
2018-12-25T18:57:47.987Z,10.80
2018-12-25T19:00:16.680Z,11.03
2018-12-25T19:02:45.447Z,9.70
2018-12-25T19:05:14.230Z,10.07
2018-12-25T19:07:42.957Z,10.90
2018-12-25T19:10:11.657Z,10.43
2018-12-25T19:12:40.422Z,11.47
2018-12-25T19:15:22.621Z,11.23
2018-12-25T19:17:53.012Z,11.10
2018-12-25T19:20:21.717Z,10.90
2018-12-25T19:22:50.492Z,11.67
2018-12-25T19:25:19.532Z,11.10
2018-12-25T19:27:48.207Z,10.40
2018-12-25T19:30:19.985Z,11.50
2018-12-25T19:32:48.692Z,10.30
2018-12-25T19:35:17.389Z,10.20
2018-12-25T19:37:46.259Z,11.67
2018-12-25T19:40:14.923Z,10.90
2018-12-25T19:42:43.649Z,11.40
2018-12-25T19:45:12.393Z,11.37
2018-12-25T19:47:41.075Z,11.57
2018-12-25T19:50:09.782Z,11.83
2018-12-25T19:52:38.478Z,10.70
2018-12-25T19:55:07.658Z,12.63
2018-12-25T19:57:36.342Z,12.03
2018-12-25T20:00:08.116Z,11.00
2018-12-25T20:02:36.786Z,13.40
2018-12-25T20:05:08.399Z,11.73
2018-12-25T20:07:55.119Z,11.40
2018-12-25T20:10:32.862Z,12.30
2018-12-25T20:13:30.320Z,12.50
2018-12-25T20:16:04.532Z,12.53
2018-12-25T20:18:45.111Z,11.73
2018-12-25T20:21:33.379Z,11.40
2018-12-25T20:24:05.006Z,11.10
2018-12-25T20:26:42.694Z,10.80
2018-12-25T20:29:31.005Z,11.60
2018-12-25T20:32:05.868Z,10.77
2018-12-25T20:34:57.350Z,11.63
2018-12-25T20:37:32.114Z,11.97
2018-12-25T20:40:26.622Z,11.97
2018-12-25T20:43:14.608Z,11.07
2018-12-25T20:46:10.881Z,12.17
2018-12-25T20:48:59.412Z,10.97
2018-12-25T20:51:50.478Z,12.10
2018-12-25T20:54:37.289Z,11.37
2018-12-25T20:57:20.968Z,11.87
2018-12-25T21:00:16.964Z,11.77
2018-12-25T21:02:48.671Z,12.53
2018-12-25T21:05:38.682Z,12.63
2018-12-25T21:08:10.351Z,12.47
2018-12-25T21:10:54.139Z,11.40
2018-12-25T21:13:37.918Z,11.53
2018-12-25T21:16:12.429Z,12.57
2018-12-25T21:18:55.684Z,11.30
2018-12-25T21:21:54.839Z,12.17
2018-12-25T21:25:00.115Z,12.20
2018-12-25T21:27:31.281Z,12.20
2018-12-25T21:30:01.252Z,12.17
2018-12-25T21:32:31.278Z,12.37
2018-12-25T21:35:09.257Z,13.43
2018-12-25T21:37:37.990Z,12.53
2018-12-25T21:40:07.571Z,12.97
2018-12-25T21:42:37.128Z,13.00
2018-12-25T21:45:07.367Z,12.97
2018-12-25T21:47:36.639Z,12.13
2018-12-25T21:50:08.847Z,11.60
2018-12-25T21:52:38.550Z,12.97
2018-12-25T21:55:09.333Z,12.70
2018-12-25T21:57:38.002Z,13.50
2018-12-25T22:00:12.094Z,12.93
2018-12-25T22:02:40.886Z,12.27
2018-12-25T22:05:09.548Z,12.37
2018-12-25T22:07:38.293Z,12.53
2018-12-25T22:10:07.788Z,11.80
2018-12-25T22:12:36.457Z,11.87
2018-12-25T22:15:07.092Z,12.20
2018-12-25T22:17:35.750Z,11.77
2018-12-25T22:20:13.298Z,12.57
2018-12-25T22:22:41.978Z,12.77
2018-12-25T22:25:10.648Z,13.10
2018-12-25T22:27:39.346Z,12.80
2018-12-25T22:30:08.023Z,11.97
2018-12-25T22:32:36.725Z,12.27
2018-12-25T22:35:08.427Z,13.40
2018-12-25T22:37:37.112Z,11.53
2018-12-25T22:40:06.199Z,12.93
2018-12-25T22:42:35.182Z,12.47
2018-12-25T22:45:04.756Z,12.60
2018-12-25T22:47:33.623Z,13.60
2018-12-25T22:50:02.317Z,12.90
2018-12-25T22:52:31.056Z,13.10
2018-12-25T22:54:59.720Z,12.10
2018-12-25T22:57:28.752Z,12.07
2018-12-25T22:59:57.484Z,11.93
2018-12-25T23:02:26.169Z,11.83
2018-12-25T23:04:54.898Z,11.37
2018-12-25T23:07:23.687Z,12.97
2018-12-25T23:09:52.376Z,12.77
2018-12-25T23:12:21.088Z,12.80
2018-12-25T23:14:49.776Z,11.90
2018-12-25T23:17:18.454Z,12.87
2018-12-25T23:19:47.158Z,13.00
2018-12-25T23:22:15.845Z,11.83
2018-12-25T23:24:44.540Z,12.60
2018-12-25T23:27:13.232Z,11.90
2018-12-25T23:29:42.021Z,12.40
2018-12-25T23:32:10.700Z,12.70
2018-12-25T23:34:39.405Z,12.53
2018-12-25T23:37:08.214Z,13.10
2018-12-25T23:39:36.887Z,12.63
2018-12-25T23:42:05.884Z,12.40
2018-12-25T23:44:34.557Z,12.53
2018-12-25T23:47:03.339Z,12.87
2018-12-25T23:49:32.035Z,12.10
2018-12-25T23:52:00.716Z,12.47
2018-12-25T23:54:29.375Z,12.40
2018-12-25T23:56:58.102Z,12.30
2018-12-25T23:59:26.771Z,13.50
